createdAt,value
2017-09-30T04:28:54.328Z,34.60
2017-09-30T04:31:22.561Z,30.63
2017-09-30T04:33:50.685Z,29.73
2017-09-30T04:36:18.913Z,28.93
2017-09-30T04:38:47.983Z,30.20
2017-09-30T04:41:16.173Z,31.53
2017-09-30T04:43:45.117Z,31.87
2017-09-30T04:46:14.023Z,30.40
2017-09-30T04:48:42.144Z,32.27
2017-09-30T04:51:10.322Z,31.73
2017-09-30T04:53:38.449Z,30.63
2017-09-30T04:56:06.579Z,31.60
2017-09-30T04:58:34.713Z,31.20
2017-09-30T05:01:03.629Z,29.10
2017-09-30T05:03:31.763Z,33.00
2017-09-30T05:05:59.967Z,31.93
2017-09-30T05:08:28.115Z,31.70
2017-09-30T05:10:56.377Z,31.17
2017-09-30T05:13:24.499Z,31.13
2017-09-30T05:15:52.648Z,30.40
2017-09-30T05:18:20.881Z,31.43
2017-09-30T05:21:06.441Z,30.73
2017-09-30T05:23:34.759Z,29.97
2017-09-30T05:26:03.099Z,29.10
2017-09-30T05:28:33.212Z,29.80
2017-09-30T05:31:03.696Z,30.63
2017-09-30T05:33:31.882Z,30.43
2017-09-30T05:36:18.683Z,31.63
2017-09-30T05:38:46.818Z,29.67
2017-09-30T05:41:14.950Z,29.53
2017-09-30T05:43:43.842Z,28.50
2017-09-30T05:46:12.006Z,27.80
2017-09-30T05:48:40.171Z,28.20
2017-09-30T05:51:09.056Z,28.53
2017-09-30T05:53:37.323Z,29.43
2017-09-30T05:56:05.485Z,32.13
2017-09-30T05:58:39.551Z,30.43
2017-09-30T06:01:11.546Z,28.87
2017-09-30T06:03:44.499Z,28.60
2017-09-30T06:06:14.553Z,28.10
2017-09-30T06:08:42.728Z,28.60
2017-09-30T06:11:12.086Z,27.47
2017-09-30T06:13:40.256Z,29.30
2017-09-30T06:16:09.260Z,27.93
2017-09-30T06:18:37.380Z,29.07
2017-09-30T06:21:06.311Z,27.60
2017-09-30T06:23:36.402Z,27.33
2017-09-30T06:29:03.195Z,26.70
2017-09-30T06:31:31.324Z,27.70
2017-09-30T06:33:59.463Z,26.77
2017-09-30T06:36:29.223Z,28.93
2017-09-30T06:39:04.208Z,29.20
2017-09-30T06:41:34.637Z,27.10
2017-09-30T06:44:03.018Z,26.83
2017-09-30T06:46:31.150Z,26.70
2017-09-30T06:48:59.578Z,27.33
2017-09-30T06:51:27.698Z,28.30
2017-09-30T06:53:55.866Z,27.20
2017-09-30T06:56:24.010Z,28.17
2017-09-30T06:58:52.156Z,27.70
2017-09-30T07:01:21.364Z,27.27
2017-09-30T07:03:49.581Z,27.57
2017-09-30T07:06:18.482Z,26.20
2017-09-30T07:08:47.910Z,26.57
2017-09-30T07:11:23.609Z,27.83
2017-09-30T07:16:55.303Z,27.73
2017-09-30T07:19:24.208Z,26.87
2017-09-30T07:21:52.320Z,24.60
2017-09-30T07:27:29.994Z,26.70
2017-09-30T07:29:58.943Z,26.00
2017-09-30T07:32:27.139Z,27.10
2017-09-30T07:34:55.302Z,27.17
2017-09-30T07:37:23.490Z,27.67
2017-09-30T07:39:51.650Z,28.50
2017-09-30T07:42:20.704Z,27.07
2017-09-30T07:47:44.829Z,27.50
2017-09-30T07:50:14.843Z,28.67
2017-09-30T07:52:44.993Z,26.50
2017-09-30T07:55:14.125Z,28.67
2017-09-30T07:57:42.262Z,28.03
2017-09-30T08:00:12.420Z,26.50
2017-09-30T08:02:40.542Z,28.53
2017-09-30T08:05:10.476Z,27.23
2017-09-30T08:07:38.905Z,26.47
2017-09-30T08:10:17.764Z,27.77
2017-09-30T08:13:05.990Z,28.33
2017-09-30T08:15:34.131Z,27.03
2017-09-30T08:18:03.109Z,26.60
2017-09-30T08:20:31.311Z,26.07
2017-09-30T08:22:59.603Z,28.60
2017-09-30T08:25:31.169Z,28.17
2017-09-30T08:28:14.522Z,27.67
2017-09-30T08:30:42.675Z,26.77
2017-09-30T08:36:31.149Z,24.90
2017-09-30T08:38:59.368Z,26.53
2017-09-30T08:41:34.110Z,25.77
2017-09-30T08:44:02.259Z,25.83
2017-09-30T08:46:30.352Z,26.27
2017-09-30T08:48:58.476Z,25.00
2017-09-30T08:51:36.756Z,25.10
2017-09-30T08:54:17.307Z,24.07
2017-09-30T08:56:45.468Z,25.93
2017-09-30T08:59:13.617Z,25.77
2017-09-30T09:01:41.758Z,26.50
2017-09-30T09:04:09.875Z,25.00
2017-09-30T09:06:40.911Z,25.97
2017-09-30T09:09:09.142Z,24.50
2017-09-30T09:11:42.694Z,24.30
2017-09-30T09:14:12.274Z,25.13
2017-09-30T09:16:51.151Z,24.73
2017-09-30T09:19:19.297Z,24.73
2017-09-30T09:21:48.222Z,27.33
2017-09-30T09:27:21.694Z,25.73
2017-09-30T09:32:33.563Z,25.67
2017-09-30T09:35:18.031Z,27.20
2017-09-30T09:42:18.140Z,25.27
2017-09-30T09:44:46.259Z,25.23
2017-09-30T09:47:14.999Z,23.80
2017-09-30T09:49:48.542Z,25.27
2017-09-30T10:00:44.990Z,24.30
2017-09-30T10:03:13.114Z,25.40
2017-09-30T10:05:41.303Z,25.40
2017-09-30T10:08:09.455Z,24.40
2017-09-30T10:10:37.614Z,25.87
2017-09-30T10:13:05.739Z,25.70
2017-09-30T10:15:38.966Z,24.80
2017-09-30T10:18:07.178Z,24.60
2017-09-30T10:20:35.297Z,25.50
2017-09-30T10:23:03.407Z,25.07
2017-09-30T10:25:32.630Z,25.50
2017-09-30T10:31:06.011Z,27.40
2017-09-30T10:36:15.490Z,28.30
2017-09-30T10:38:48.067Z,27.10
2017-09-30T10:41:16.234Z,25.60
2017-09-30T10:43:45.160Z,25.90
2017-09-30T10:46:13.385Z,25.57
2017-09-30T10:48:41.659Z,24.23
2017-09-30T10:51:10.740Z,24.73
2017-09-30T10:53:38.989Z,26.90
2017-09-30T10:56:07.178Z,24.43
2017-09-30T10:58:36.419Z,25.50
2017-09-30T11:01:30.061Z,24.43
2017-09-30T11:03:58.184Z,25.53
2017-09-30T11:06:28.298Z,23.23
2017-09-30T11:08:56.528Z,25.40
2017-09-30T11:11:27.328Z,24.40
2017-09-30T11:14:01.578Z,24.23
2017-09-30T11:16:30.632Z,25.43
2017-09-30T11:18:59.023Z,23.73
2017-09-30T11:21:27.166Z,24.80
2017-09-30T11:23:55.369Z,23.23
2017-09-30T11:26:27.102Z,24.70
2017-09-30T11:28:55.217Z,23.20
2017-09-30T11:31:23.359Z,24.90
2017-09-30T11:33:51.622Z,24.10
2017-09-30T11:36:19.797Z,26.53
2017-09-30T11:38:47.958Z,26.03
2017-09-30T11:41:18.374Z,24.13
2017-09-30T11:43:51.931Z,25.13
2017-09-30T11:46:20.087Z,26.00
2017-09-30T11:48:49.136Z,25.50
2017-09-30T11:51:18.361Z,23.97
2017-09-30T11:53:55.089Z,25.83
2017-09-30T11:56:24.787Z,22.97
2017-09-30T11:58:52.920Z,23.57
2017-09-30T12:01:21.901Z,25.27
2017-09-30T12:03:50.044Z,22.77
2017-09-30T12:09:18.529Z,25.80
2017-09-30T12:11:48.482Z,24.63
2017-09-30T12:17:12.459Z,23.17
2017-09-30T12:19:40.613Z,23.60
2017-09-30T12:22:13.134Z,23.80
2017-09-30T12:24:42.879Z,23.27
2017-09-30T12:27:12.427Z,22.63
2017-09-30T12:29:41.956Z,22.37
2017-09-30T12:32:11.428Z,22.70
2017-09-30T12:34:50.852Z,22.70
2017-09-30T12:37:18.979Z,23.20
2017-09-30T12:39:47.175Z,23.80
2017-09-30T12:42:15.370Z,22.30
2017-09-30T12:44:43.593Z,21.47
2017-09-30T12:47:11.750Z,22.70
2017-09-30T12:49:39.891Z,23.10
2017-09-30T12:55:16.172Z,23.50
2017-09-30T12:57:44.419Z,22.60
2017-09-30T13:00:18.283Z,22.80
2017-09-30T13:05:25.364Z,22.97
2017-09-30T13:11:18.532Z,21.57
2017-09-30T13:13:59.681Z,23.47
2017-09-30T13:16:31.838Z,23.75
2017-09-30T13:19:00.718Z,21.50
2017-09-30T13:21:29.031Z,25.30
2017-09-30T13:23:57.197Z,26.03
2017-09-30T13:26:25.654Z,25.43
2017-09-30T13:28:54.718Z,27.33
2017-09-30T13:31:22.891Z,26.43
2017-09-30T13:33:52.022Z,26.07
2017-09-30T13:36:20.931Z,25.37
2017-09-30T13:38:49.075Z,25.13
2017-09-30T13:41:17.250Z,24.90
2017-09-30T13:43:48.070Z,22.80
2017-09-30T13:46:18.861Z,24.23
2017-09-30T13:48:48.837Z,23.87
2017-09-30T13:51:18.031Z,22.23
2017-09-30T13:53:46.186Z,25.37
2017-09-30T13:56:14.281Z,23.60
2017-09-30T13:58:49.419Z,22.57
2017-09-30T14:01:19.189Z,22.53
2017-09-30T14:06:20.794Z,24.07
2017-09-30T14:08:49.017Z,22.20
2017-09-30T14:11:17.214Z,23.47
2017-09-30T14:13:45.451Z,21.83
2017-09-30T14:16:14.264Z,21.43
2017-09-30T14:18:43.377Z,21.90
2017-09-30T14:21:11.514Z,21.93
2017-09-30T14:23:39.771Z,23.50
2017-09-30T14:26:10.120Z,21.73
2017-09-30T14:28:50.415Z,22.87
2017-09-30T14:31:18.569Z,21.53
2017-09-30T14:33:47.085Z,21.93
2017-09-30T14:36:15.282Z,23.80
2017-09-30T14:38:44.253Z,21.37
2017-09-30T14:41:16.563Z,22.47
2017-09-30T14:43:44.791Z,22.93
2017-09-30T14:46:18.129Z,21.53
2017-09-30T14:48:46.323Z,22.90
2017-09-30T14:51:15.483Z,22.50
2017-09-30T14:53:43.823Z,22.53
2017-09-30T14:56:12.030Z,22.50
2017-09-30T14:58:40.271Z,23.80
2017-09-30T15:01:08.452Z,22.73
2017-09-30T15:03:36.704Z,23.90
2017-09-30T15:06:07.169Z,22.97
2017-09-30T15:08:35.445Z,23.40
2017-09-30T15:11:06.687Z,22.97
2017-09-30T15:13:34.885Z,22.03
2017-09-30T15:16:03.776Z,23.27
2017-09-30T15:18:34.063Z,24.00
2017-09-30T15:21:02.355Z,22.70
2017-09-30T15:23:30.517Z,23.10
2017-09-30T15:25:58.650Z,22.77
2017-09-30T15:28:26.835Z,23.03
2017-09-30T15:30:55.027Z,23.97
2017-09-30T15:33:23.175Z,23.87
2017-09-30T15:35:51.342Z,23.40
2017-09-30T15:38:19.785Z,23.00
2017-09-30T15:40:48.024Z,26.13
2017-09-30T15:43:16.284Z,23.20
2017-09-30T15:45:57.036Z,23.00
2017-09-30T15:48:27.898Z,24.50
2017-09-30T15:50:56.002Z,23.47
2017-09-30T15:53:24.342Z,24.83
2017-09-30T15:55:52.487Z,23.30
2017-09-30T15:58:20.708Z,25.80
2017-09-30T16:00:49.812Z,24.57
2017-09-30T16:03:18.127Z,23.93
2017-09-30T16:05:46.603Z,24.07
2017-09-30T16:08:14.709Z,26.00
2017-09-30T16:10:42.860Z,25.73
2017-09-30T16:13:10.997Z,26.23
2017-09-30T16:15:39.926Z,25.80
2017-09-30T16:18:08.182Z,25.57
2017-09-30T16:20:36.483Z,26.10
2017-09-30T16:23:05.368Z,23.87
2017-09-30T16:25:34.388Z,24.53
2017-09-30T16:28:02.558Z,24.43
2017-09-30T16:30:30.761Z,30.97
2017-09-30T16:32:58.907Z,24.77
2017-09-30T16:35:27.079Z,24.67
2017-09-30T16:37:55.223Z,24.73
2017-09-30T16:40:27.566Z,23.00
2017-09-30T16:42:55.719Z,23.97
2017-09-30T16:45:23.896Z,22.70
2017-09-30T16:47:52.030Z,23.43
2017-09-30T16:53:14.520Z,22.57
2017-09-30T16:55:49.114Z,22.73
2017-09-30T16:58:17.291Z,22.33
2017-09-30T17:00:45.631Z,23.17
2017-09-30T17:03:13.783Z,22.87
2017-09-30T17:05:41.927Z,22.20
2017-09-30T17:08:11.521Z,22.77
2017-09-30T17:10:40.999Z,23.90
2017-09-30T17:13:09.258Z,22.93
2017-09-30T17:15:37.512Z,22.77
2017-09-30T17:18:05.674Z,21.50
2017-09-30T17:20:33.895Z,22.00
2017-09-30T17:23:03.093Z,21.37
2017-09-30T17:25:31.363Z,21.73
2017-09-30T17:28:17.517Z,21.77
2017-09-30T17:30:46.341Z,20.47
2017-09-30T17:33:15.944Z,23.70
2017-09-30T17:35:44.294Z,22.80
2017-09-30T17:38:13.330Z,21.73
2017-09-30T17:40:41.472Z,22.33
2017-09-30T17:43:09.714Z,22.57
2017-09-30T17:45:38.133Z,22.00
2017-09-30T17:48:06.292Z,22.00
2017-09-30T17:50:35.472Z,22.97
2017-09-30T17:53:03.832Z,21.53
2017-09-30T17:55:31.943Z,21.87
2017-09-30T17:58:01.147Z,21.40
2017-09-30T18:00:29.281Z,21.00
2017-09-30T18:02:57.535Z,21.60
2017-09-30T18:05:43.149Z,20.07
2017-09-30T18:08:11.409Z,20.70
2017-09-30T18:10:39.959Z,21.00
2017-09-30T18:13:08.154Z,20.83
2017-09-30T18:15:36.388Z,22.00
2017-09-30T18:18:04.512Z,21.43
2017-09-30T18:20:32.651Z,21.63
2017-09-30T18:23:00.775Z,20.77
2017-09-30T18:25:28.971Z,21.53
2017-09-30T18:27:57.110Z,21.40
2017-09-30T18:30:25.300Z,19.83
2017-09-30T18:32:53.468Z,21.37
2017-09-30T18:35:22.384Z,20.10
2017-09-30T18:37:50.560Z,21.50
2017-09-30T18:40:18.710Z,19.50
2017-09-30T18:42:46.906Z,20.13
2017-09-30T18:45:15.058Z,21.77
2017-09-30T18:47:45.530Z,20.17
2017-09-30T18:50:13.790Z,21.67
2017-09-30T18:52:41.993Z,22.07
2017-09-30T18:55:10.118Z,21.23
2017-09-30T18:57:38.402Z,22.20
2017-09-30T19:00:06.606Z,21.20
2017-09-30T19:02:35.193Z,20.70
2017-09-30T19:05:05.859Z,22.03
2017-09-30T19:07:34.988Z,23.63
2017-09-30T19:10:04.462Z,22.67
2017-09-30T19:12:32.642Z,22.50
2017-09-30T19:15:00.809Z,20.70
2017-09-30T19:17:29.004Z,23.57
2017-09-30T19:20:17.551Z,23.27
2017-09-30T19:22:45.886Z,23.30
2017-09-30T19:25:14.127Z,23.93
2017-09-30T19:27:45.171Z,26.20
2017-09-30T19:30:15.979Z,26.90
2017-09-30T19:32:44.226Z,23.70
2017-09-30T19:35:12.465Z,23.70
2017-09-30T19:37:40.613Z,24.00
2017-09-30T19:40:09.513Z,24.07
2017-09-30T19:42:47.781Z,24.13
2017-09-30T19:45:20.668Z,22.13
2017-09-30T19:47:48.872Z,23.77
2017-09-30T19:50:18.170Z,23.83
2017-09-30T19:52:46.308Z,22.33
2017-09-30T19:55:14.732Z,22.03
2017-09-30T19:57:42.866Z,22.10
2017-09-30T20:00:11.333Z,22.73
2017-09-30T20:02:39.873Z,21.60
2017-09-30T20:05:08.076Z,22.10
2017-09-30T20:07:36.241Z,22.00
2017-09-30T20:10:04.470Z,8.17
2017-09-30T20:12:32.593Z,6.03
2017-09-30T20:15:00.790Z,3.30
2017-09-30T20:17:29.662Z,3.00
2017-09-30T20:19:57.796Z,3.47
2017-09-30T20:22:26.150Z,3.20
2017-09-30T20:24:54.657Z,2.67
2017-09-30T20:27:22.802Z,2.27
2017-09-30T20:29:51.072Z,1.80
2017-09-30T20:32:19.191Z,1.67
2017-09-30T20:34:47.841Z,2.03
2017-09-30T20:37:17.773Z,1.90
2017-09-30T20:39:45.900Z,2.60
2017-09-30T20:42:14.157Z,3.10
2017-09-30T20:44:42.284Z,2.20
2017-09-30T20:47:10.882Z,2.40
2017-09-30T20:49:39.038Z,2.53
2017-09-30T20:52:07.653Z,1.90
2017-09-30T20:54:35.770Z,1.80
2017-09-30T20:57:04.049Z,2.10
2017-09-30T20:59:32.228Z,1.60
2017-09-30T21:02:06.376Z,2.03
2017-09-30T21:04:34.526Z,2.03
2017-09-30T21:07:02.751Z,1.83
2017-09-30T21:09:31.261Z,2.20
2017-09-30T21:12:00.438Z,1.70
2017-09-30T21:14:28.586Z,2.40
2017-09-30T21:16:56.726Z,2.10
2017-09-30T21:19:24.856Z,2.80
2017-09-30T21:21:53.031Z,2.47
2017-09-30T21:24:21.906Z,3.37
2017-09-30T21:26:50.126Z,2.77
2017-09-30T21:29:20.216Z,2.20
2017-09-30T21:31:48.415Z,2.43
2017-09-30T21:34:16.677Z,2.17
2017-09-30T21:36:45.038Z,2.30
2017-09-30T21:39:13.249Z,2.70
2017-09-30T21:41:41.624Z,2.40
2017-09-30T21:44:09.756Z,2.87
2017-09-30T21:46:37.880Z,1.90
2017-09-30T21:49:06.139Z,2.20
2017-09-30T21:51:35.188Z,2.27
2017-09-30T21:54:03.352Z,2.97
2017-09-30T21:56:32.401Z,3.08
2017-09-30T21:59:00.638Z,2.20
2017-09-30T22:01:29.083Z,2.93
2017-09-30T22:03:57.380Z,3.00
2017-09-30T22:06:25.767Z,2.80
2017-09-30T22:08:53.957Z,3.13
2017-09-30T22:11:22.106Z,3.17
2017-09-30T22:13:50.291Z,2.90
2017-09-30T22:16:18.815Z,3.30
2017-09-30T22:18:47.143Z,2.63
2017-09-30T22:21:16.120Z,2.80
2017-09-30T22:23:44.273Z,3.00
2017-09-30T22:26:12.395Z,2.50
2017-09-30T22:28:40.548Z,2.70
2017-09-30T22:31:08.730Z,3.20
2017-09-30T22:33:36.863Z,2.57
2017-09-30T22:36:05.050Z,2.37
2017-09-30T22:38:37.174Z,2.53
2017-09-30T22:41:06.185Z,2.47
2017-09-30T22:43:34.324Z,2.30
2017-09-30T22:46:03.319Z,2.13
2017-09-30T22:48:31.441Z,2.60
2017-09-30T22:51:00.639Z,2.30
2017-09-30T22:53:28.823Z,2.63
2017-09-30T22:55:57.056Z,3.50
2017-09-30T22:58:25.240Z,2.60
2017-09-30T23:00:55.382Z,2.93
2017-09-30T23:03:23.702Z,3.30
2017-09-30T23:05:54.946Z,3.30
2017-09-30T23:11:01.651Z,3.27
2017-09-30T23:13:31.904Z,2.87
2017-09-30T23:16:05.538Z,2.47
2017-09-30T23:18:36.425Z,3.30
2017-09-30T23:21:04.823Z,2.27
2017-09-30T23:23:32.986Z,2.47
2017-09-30T23:26:01.100Z,2.80
2017-09-30T23:28:29.260Z,3.07
2017-09-30T23:30:57.448Z,3.00
2017-09-30T23:33:25.793Z,3.30
2017-09-30T23:35:53.919Z,3.47
2017-09-30T23:38:22.100Z,2.97
2017-09-30T23:40:53.462Z,2.93
2017-09-30T23:43:21.614Z,3.10
2017-09-30T23:45:58.337Z,2.97
2017-09-30T23:48:28.659Z,3.60
2017-09-30T23:53:38.533Z,3.80
2017-09-30T23:56:07.894Z,3.93
